createdAt,value
2019-01-24T00:00:43.860Z,62.93
2019-01-24T00:03:13.303Z,65.60
2019-01-24T00:05:42.868Z,62.10
2019-01-24T00:08:12.382Z,66.43
2019-01-24T00:10:41.999Z,61.47
2019-01-24T00:13:11.610Z,54.87
2019-01-24T00:15:41.130Z,58.10
2019-01-24T00:18:10.675Z,61.30
2019-01-24T00:20:40.205Z,63.93
2019-01-24T00:23:09.748Z,64.17
2019-01-24T00:25:39.276Z,59.17
2019-01-24T00:28:08.868Z,66.90
2019-01-24T00:30:38.328Z,60.57
2019-01-24T00:33:07.818Z,59.90
2019-01-24T00:35:37.329Z,65.93
2019-01-24T00:38:06.887Z,62.53
2019-01-24T00:40:36.331Z,62.90
2019-01-24T00:43:05.833Z,58.63
2019-01-24T00:45:35.309Z,63.90
2019-01-24T00:48:05.041Z,68.47
2019-01-24T00:50:34.490Z,63.20
2019-01-24T00:53:03.995Z,64.43
2019-01-24T00:55:33.522Z,60.93
2019-01-24T00:58:02.981Z,55.27
2019-01-24T01:00:32.666Z,67.30
2019-01-24T01:03:02.259Z,67.90
2019-01-24T01:05:31.853Z,66.33
2019-01-24T01:08:01.444Z,63.23
2019-01-24T01:10:30.918Z,69.40
2019-01-24T01:13:00.571Z,64.87
2019-01-24T01:15:30.078Z,61.23
2019-01-24T01:17:59.749Z,62.97
2019-01-24T01:20:29.273Z,64.47
2019-01-24T01:22:58.787Z,68.57
2019-01-24T01:25:28.260Z,61.90
2019-01-24T01:27:57.874Z,63.43
2019-01-24T01:30:27.372Z,68.50
2019-01-24T01:32:56.889Z,56.13
2019-01-24T01:35:26.410Z,61.17
2019-01-24T01:37:55.884Z,67.13
2019-01-24T01:40:25.397Z,65.43
2019-01-24T01:42:54.943Z,72.43
2019-01-24T01:45:24.485Z,63.63
2019-01-24T01:47:53.941Z,62.00
2019-01-24T01:50:25.595Z,66.40
2019-01-24T01:52:55.067Z,65.60
2019-01-24T01:55:24.532Z,68.07
2019-01-24T01:57:54.015Z,72.10
2019-01-24T02:00:26.073Z,64.63
2019-01-24T02:02:55.608Z,70.23
2019-01-24T02:05:25.183Z,66.23
2019-01-24T02:07:54.602Z,67.73
2019-01-24T02:10:25.158Z,65.07
2019-01-24T02:12:54.806Z,67.20
2019-01-24T02:15:24.483Z,68.10
2019-01-24T02:17:53.998Z,64.37
2019-01-24T02:20:24.862Z,66.60
2019-01-24T02:22:54.493Z,65.03
2019-01-24T02:25:24.548Z,64.10
2019-01-24T02:27:54.023Z,63.93
2019-01-24T02:30:29.757Z,63.60
2019-01-24T02:32:59.441Z,71.23
2019-01-24T02:35:29.001Z,64.87
2019-01-24T02:37:58.539Z,66.13
2019-01-24T02:40:28.133Z,65.40
2019-01-24T02:42:57.609Z,63.00
2019-01-24T02:45:27.341Z,67.03
2019-01-24T02:47:56.789Z,64.93
2019-01-24T02:50:26.401Z,66.27
2019-01-24T02:52:55.881Z,70.43
2019-01-24T02:55:25.364Z,59.90
2019-01-24T02:57:54.838Z,70.70
2019-01-24T03:00:24.957Z,63.17
2019-01-24T03:02:54.550Z,70.10
2019-01-24T03:05:24.870Z,64.90
2019-01-24T03:07:54.427Z,71.10
2019-01-24T03:10:24.048Z,66.50
2019-01-24T03:12:53.620Z,64.60
2019-01-24T03:15:23.798Z,71.80
2019-01-24T03:17:53.353Z,65.07
2019-01-24T03:20:22.795Z,68.80
2019-01-24T03:22:52.299Z,69.60
2019-01-24T03:25:21.883Z,70.83
2019-01-24T03:27:51.332Z,69.63
2019-01-24T03:30:23.298Z,67.20
2019-01-24T03:32:52.747Z,65.80
2019-01-24T03:35:25.469Z,70.10
2019-01-24T03:37:55.091Z,68.67
2019-01-24T03:40:24.783Z,66.07
2019-01-24T03:42:54.308Z,67.13
2019-01-24T03:45:23.801Z,71.00
2019-01-24T03:47:53.321Z,74.43
2019-01-24T03:50:23.517Z,70.53
2019-01-24T03:52:53.020Z,69.30
2019-01-24T03:55:23.093Z,71.63
2019-01-24T03:57:52.620Z,71.97
2019-01-24T04:00:24.815Z,74.23
2019-01-24T04:02:54.505Z,71.13
2019-01-24T04:05:43.342Z,68.20
2019-01-24T04:08:12.841Z,70.20
2019-01-24T04:10:42.365Z,69.73
2019-01-24T04:13:11.350Z,69.27
2019-01-24T04:15:40.973Z,74.40
2019-01-24T04:18:10.675Z,68.73
2019-01-24T04:20:40.132Z,73.17
2019-01-24T04:23:09.627Z,78.13
2019-01-24T04:25:39.078Z,68.70
2019-01-24T04:28:08.587Z,64.53
2019-01-24T04:30:38.076Z,62.33
2019-01-24T04:33:07.536Z,65.33
2019-01-24T04:35:37.161Z,66.50
2019-01-24T04:38:06.704Z,67.20
2019-01-24T04:40:36.160Z,62.03
2019-01-24T04:43:05.634Z,59.03
2019-01-24T04:45:35.143Z,71.17
2019-01-24T04:48:04.663Z,68.50
2019-01-24T04:50:34.128Z,63.37
2019-01-24T04:53:03.746Z,61.37
2019-01-24T04:55:33.226Z,71.47
2019-01-24T04:58:02.699Z,74.00
2019-01-24T05:00:32.392Z,70.43
2019-01-24T05:03:01.855Z,66.80
2019-01-24T05:05:31.327Z,66.27
2019-01-24T05:08:00.907Z,70.90
2019-01-24T05:10:30.494Z,63.27
2019-01-24T05:12:59.969Z,65.80
2019-01-24T05:15:29.453Z,64.43
2019-01-24T05:17:58.908Z,69.13
2019-01-24T05:20:28.412Z,70.43
2019-01-24T05:22:57.863Z,68.70
2019-01-24T05:25:27.344Z,69.77
2019-01-24T05:27:56.793Z,73.30
2019-01-24T05:30:27.860Z,71.80
2019-01-24T05:32:57.500Z,73.63
2019-01-24T05:35:26.946Z,68.73
2019-01-24T05:37:56.469Z,69.17
2019-01-24T05:40:26.026Z,72.47
2019-01-24T05:42:55.645Z,65.63
2019-01-24T05:45:25.250Z,66.27
2019-01-24T05:47:54.712Z,72.67
2019-01-24T05:50:24.556Z,64.80
2019-01-24T05:52:54.072Z,64.17
2019-01-24T05:55:23.609Z,65.23
2019-01-24T05:57:53.122Z,60.03
2019-01-24T06:00:27.349Z,66.67
2019-01-24T06:02:56.810Z,69.47
2019-01-24T06:05:26.301Z,65.70
2019-01-24T06:07:55.768Z,68.67
2019-01-24T06:10:25.307Z,68.00
2019-01-24T06:12:54.798Z,65.33
2019-01-24T06:15:24.253Z,69.83
2019-01-24T06:17:53.692Z,67.43
2019-01-24T06:20:23.197Z,67.40
2019-01-24T06:22:52.696Z,66.67
2019-01-24T06:25:22.307Z,68.93
2019-01-24T06:27:51.787Z,64.70
2019-01-24T06:30:24.901Z,72.07
2019-01-24T06:32:54.433Z,63.33
2019-01-24T06:35:23.987Z,69.20
2019-01-24T06:37:53.519Z,65.63
2019-01-24T06:40:23.077Z,69.30
2019-01-24T06:42:52.611Z,70.73
2019-01-24T06:45:23.994Z,72.40
2019-01-24T06:47:53.561Z,70.27
2019-01-24T06:50:23.114Z,69.67
2019-01-24T06:52:52.557Z,72.77
2019-01-24T06:55:28.044Z,66.73
2019-01-24T06:57:57.650Z,68.30
2019-01-24T07:00:27.228Z,68.17
2019-01-24T07:02:57.096Z,66.00
2019-01-24T07:05:26.704Z,66.27
2019-01-24T07:07:56.403Z,68.23
2019-01-24T07:10:25.933Z,74.63
2019-01-24T07:12:55.402Z,69.30
2019-01-24T07:15:25.407Z,69.70
2019-01-24T07:17:54.931Z,70.00
2019-01-24T07:20:24.511Z,75.47
2019-01-24T07:22:54.136Z,75.27
2019-01-24T07:25:26.805Z,66.80
2019-01-24T07:27:56.495Z,71.73
2019-01-24T07:30:26.045Z,72.20
2019-01-24T07:32:55.522Z,77.10
2019-01-24T07:35:25.128Z,77.47
2019-01-24T07:37:54.576Z,81.20
2019-01-24T07:40:24.090Z,78.30
2019-01-24T07:42:53.618Z,77.20
2019-01-24T07:45:33.351Z,73.90
2019-01-24T07:48:02.846Z,75.03
2019-01-24T07:50:32.380Z,73.80
2019-01-24T07:53:01.991Z,69.93
2019-01-24T07:55:31.685Z,65.53
2019-01-24T07:58:01.226Z,73.40
2019-01-24T08:00:32.026Z,71.13
2019-01-24T08:03:01.607Z,81.67
2019-01-24T08:05:31.914Z,75.70
2019-01-24T08:08:01.467Z,74.27
2019-01-24T08:10:30.922Z,74.50
2019-01-24T08:13:00.446Z,77.97
2019-01-24T08:15:29.938Z,67.97
2019-01-24T08:17:59.442Z,74.80
2019-01-24T08:20:29.492Z,70.83
2019-01-24T08:22:59.019Z,75.97
2019-01-24T08:25:28.620Z,73.83
2019-01-24T08:27:58.059Z,71.93
2019-01-24T08:30:31.169Z,80.30
2019-01-24T08:33:00.766Z,75.00
2019-01-24T08:35:30.345Z,79.70
2019-01-24T08:38:00.106Z,77.37
2019-01-24T08:40:29.647Z,79.03
2019-01-24T08:42:59.106Z,76.13
2019-01-24T08:45:28.727Z,76.33
2019-01-24T08:47:58.188Z,71.57
2019-01-24T08:50:28.337Z,73.77
2019-01-24T08:52:57.944Z,73.10
2019-01-24T08:55:31.497Z,78.63
2019-01-24T08:58:01.064Z,75.50
2019-01-24T09:00:30.573Z,73.37
2019-01-24T09:03:00.178Z,71.93
2019-01-24T09:05:29.758Z,76.30
2019-01-24T09:07:59.205Z,66.10
2019-01-24T09:10:33.074Z,70.00
2019-01-24T09:13:02.723Z,64.87
2019-01-24T09:15:32.250Z,64.17
2019-01-24T09:18:01.791Z,74.90
2019-01-24T09:20:31.335Z,72.70
2019-01-24T09:23:00.915Z,71.47
2019-01-24T09:25:30.511Z,70.57
2019-01-24T09:27:59.962Z,83.10
2019-01-24T09:30:30.767Z,69.43
2019-01-24T09:33:00.198Z,62.70
2019-01-24T09:35:29.640Z,67.90
2019-01-24T09:37:59.140Z,67.40
2019-01-24T09:40:28.680Z,66.70
2019-01-24T09:42:58.191Z,64.67
2019-01-24T09:45:29.308Z,70.37
2019-01-24T09:47:59.766Z,70.67
2019-01-24T09:50:30.232Z,65.77
2019-01-24T09:52:59.767Z,68.63
2019-01-24T09:55:32.023Z,64.90
2019-01-24T09:58:01.475Z,63.83
2019-01-24T10:00:34.237Z,67.77
2019-01-24T10:03:03.959Z,67.73
2019-01-24T10:05:33.484Z,68.23
2019-01-24T10:08:03.009Z,69.07
2019-01-24T10:10:32.623Z,72.53
2019-01-24T10:13:02.217Z,70.63
2019-01-24T10:15:31.775Z,71.23
2019-01-24T10:18:01.209Z,67.10
2019-01-24T10:20:30.872Z,61.73
2019-01-24T10:23:00.420Z,68.07
2019-01-24T10:25:36.285Z,63.07
2019-01-24T10:28:05.961Z,69.20
2019-01-24T10:30:42.222Z,63.23
2019-01-24T10:33:06.851Z,63.23
2019-01-24T10:35:36.357Z,61.63
2019-01-24T10:38:06.354Z,69.13
2019-01-24T10:40:35.899Z,61.03
2019-01-24T10:43:05.643Z,69.53
2019-01-24T10:45:35.106Z,68.37
2019-01-24T10:48:04.809Z,71.43
2019-01-24T10:50:35.215Z,66.53
2019-01-24T10:53:05.144Z,66.27
2019-01-24T10:55:34.840Z,70.57
2019-01-24T10:58:04.797Z,68.90
2019-01-24T11:00:38.256Z,68.87
2019-01-24T11:03:10.967Z,68.57
2019-01-24T11:05:40.483Z,69.33
2019-01-24T11:08:10.058Z,67.20
2019-01-24T11:10:39.751Z,71.27
2019-01-24T11:13:09.336Z,72.37
2019-01-24T11:15:38.850Z,72.50
2019-01-24T11:18:08.618Z,70.47
2019-01-24T11:20:38.217Z,62.47
2019-01-24T11:23:08.103Z,63.87
2019-01-24T11:25:37.715Z,62.60
2019-01-24T11:28:07.378Z,69.13
2019-01-24T11:30:37.231Z,63.37
2019-01-24T11:33:08.007Z,59.80
2019-01-24T11:35:38.501Z,64.57
2019-01-24T11:38:08.204Z,63.37
2019-01-24T11:40:38.024Z,67.70
2019-01-24T11:43:07.598Z,68.40
2019-01-24T11:45:40.285Z,67.43
2019-01-24T11:48:09.902Z,63.93
2019-01-24T11:50:40.224Z,66.50
2019-01-24T11:53:09.690Z,70.07
2019-01-24T11:55:39.187Z,67.23
2019-01-24T11:58:08.886Z,71.03
2019-01-24T12:00:41.364Z,69.10
2019-01-24T12:03:10.860Z,66.77
2019-01-24T12:05:40.445Z,67.20
2019-01-24T12:08:10.243Z,64.67
2019-01-24T12:10:39.771Z,65.17
2019-01-24T12:13:09.468Z,62.10
2019-01-24T12:15:38.989Z,64.37
2019-01-24T12:18:08.499Z,66.30
2019-01-24T12:20:37.952Z,66.10
2019-01-24T12:23:07.387Z,67.07
2019-01-24T12:25:36.926Z,66.07
2019-01-24T12:28:06.615Z,70.33
2019-01-24T12:30:37.567Z,65.40
2019-01-24T12:33:07.272Z,64.03
2019-01-24T12:35:36.920Z,67.90
2019-01-24T12:38:06.511Z,62.57
2019-01-24T12:40:36.198Z,63.00
2019-01-24T12:43:05.993Z,62.00
2019-01-24T12:45:37.356Z,62.77
2019-01-24T12:48:07.366Z,63.27
2019-01-24T12:50:36.875Z,63.03
2019-01-24T12:53:06.917Z,72.40
2019-01-24T12:55:36.386Z,67.83
2019-01-24T12:58:06.402Z,62.17
2019-01-24T13:00:37.878Z,61.83
2019-01-24T13:03:07.615Z,65.10
2019-01-24T13:05:37.171Z,61.80
2019-01-24T13:08:06.827Z,51.73
2019-01-24T13:10:36.419Z,57.00
2019-01-24T13:13:06.692Z,64.30
2019-01-24T13:15:36.486Z,62.73
2019-01-24T13:18:06.236Z,64.43
2019-01-24T13:20:35.833Z,52.17
2019-01-24T13:23:05.662Z,57.20
2019-01-24T13:25:35.431Z,62.30
2019-01-24T13:28:05.815Z,58.77
2019-01-24T13:30:35.781Z,65.57
2019-01-24T13:33:06.354Z,62.70
2019-01-24T13:35:35.850Z,58.80
2019-01-24T13:38:06.919Z,57.33
2019-01-24T13:40:36.947Z,64.17
2019-01-24T13:43:07.241Z,63.47
2019-01-24T13:45:38.070Z,62.43
2019-01-24T13:48:08.135Z,56.23
2019-01-24T13:50:37.690Z,57.97
2019-01-24T13:53:07.745Z,61.67
2019-01-24T13:55:37.273Z,57.37
2019-01-24T13:58:06.946Z,65.93
2019-01-24T14:00:37.499Z,65.10
2019-01-24T14:03:20.029Z,57.63
2019-01-24T14:05:49.642Z,60.23
2019-01-24T14:08:19.095Z,62.23
2019-01-24T14:10:48.550Z,54.83
2019-01-24T14:13:18.065Z,52.83
2019-01-24T14:15:47.775Z,56.00
2019-01-24T14:18:16.916Z,63.73
2019-01-24T14:20:46.421Z,63.37
2019-01-24T14:23:15.959Z,57.27
2019-01-24T14:25:45.406Z,66.90
2019-01-24T14:28:15.015Z,60.27
2019-01-24T14:30:44.637Z,57.33
2019-01-24T14:33:14.299Z,55.37
2019-01-24T14:35:43.897Z,58.30
2019-01-24T14:38:13.517Z,58.47
2019-01-24T14:40:42.963Z,63.33
2019-01-24T14:43:12.489Z,58.70
2019-01-24T14:45:42.099Z,65.30
2019-01-24T14:48:11.731Z,63.70
2019-01-24T14:50:41.192Z,58.03
2019-01-24T14:53:10.726Z,69.90
2019-01-24T14:55:40.266Z,61.37
2019-01-24T14:58:09.760Z,58.33
2019-01-24T15:00:47.056Z,56.40
2019-01-24T15:03:16.609Z,59.63
2019-01-24T15:05:46.125Z,59.27
2019-01-24T15:08:15.673Z,55.97
2019-01-24T15:10:45.117Z,60.33
2019-01-24T15:13:14.664Z,65.13
2019-01-24T15:15:44.232Z,58.60
2019-01-24T15:18:13.686Z,60.10
2019-01-24T15:20:43.161Z,61.57
2019-01-24T15:23:12.682Z,66.80
2019-01-24T15:25:42.171Z,65.30
2019-01-24T15:28:11.696Z,63.27
2019-01-24T15:30:41.222Z,65.33
2019-01-24T15:33:10.704Z,56.33
2019-01-24T15:35:40.232Z,56.37
2019-01-24T15:38:09.902Z,59.30
2019-01-24T15:40:39.448Z,61.93
2019-01-24T15:43:09.111Z,61.10
2019-01-24T15:45:39.002Z,59.67
2019-01-24T15:48:08.666Z,64.50
2019-01-24T15:50:38.219Z,58.33
2019-01-24T15:53:07.816Z,65.50
2019-01-24T15:55:37.436Z,62.37
2019-01-24T15:58:07.121Z,59.60
2019-01-24T16:00:36.777Z,58.73
2019-01-24T16:03:06.629Z,65.30
2019-01-24T16:05:36.283Z,58.13
2019-01-24T16:08:06.849Z,57.13
2019-01-24T16:10:36.465Z,59.27
2019-01-24T16:13:06.479Z,55.43
2019-01-24T16:15:37.577Z,58.93
2019-01-24T16:18:08.980Z,55.27
2019-01-24T16:20:38.547Z,60.17
2019-01-24T16:23:08.046Z,64.03
2019-01-24T16:25:38.448Z,55.27
2019-01-24T16:28:08.124Z,55.03
2019-01-24T16:30:37.991Z,53.80
2019-01-24T16:33:08.745Z,62.40
2019-01-24T16:35:38.838Z,60.57
2019-01-24T16:38:09.510Z,58.60
2019-01-24T16:40:39.260Z,64.13
2019-01-24T16:43:08.959Z,63.13
2019-01-24T16:45:38.453Z,64.87
2019-01-24T16:48:08.147Z,63.83
2019-01-24T16:50:37.799Z,66.50
2019-01-24T16:53:07.379Z,65.93
2019-01-24T16:55:36.944Z,63.40
2019-01-24T16:58:07.167Z,66.33
2019-01-24T17:00:44.260Z,64.33
2019-01-24T17:03:13.789Z,67.43
2019-01-24T17:05:43.506Z,61.20
2019-01-24T17:08:16.672Z,65.53
2019-01-24T17:10:44.306Z,60.17
2019-01-24T17:13:13.876Z,61.80
2019-01-24T17:15:43.435Z,65.57
2019-01-24T17:18:12.988Z,63.17
2019-01-24T17:20:42.450Z,60.50
2019-01-24T17:23:11.909Z,59.90
2019-01-24T17:25:41.398Z,66.53
2019-01-24T17:28:10.893Z,61.20
2019-01-24T17:30:40.575Z,64.67
2019-01-24T17:33:10.247Z,68.20
2019-01-24T17:35:40.813Z,66.93
2019-01-24T17:38:10.367Z,65.73
2019-01-24T17:40:39.937Z,54.80
2019-01-24T17:43:09.524Z,64.23
2019-01-24T17:45:39.036Z,58.43
2019-01-24T17:48:08.717Z,63.83
2019-01-24T17:50:38.254Z,61.33
2019-01-24T17:53:07.815Z,65.77
2019-01-24T17:55:45.964Z,61.50
2019-01-24T17:58:15.586Z,61.37
2019-01-24T18:00:46.677Z,60.67
2019-01-24T18:03:16.380Z,59.83
2019-01-24T18:05:45.959Z,62.57
2019-01-24T18:08:15.480Z,64.57
2019-01-24T18:10:45.104Z,66.23
2019-01-24T18:13:14.711Z,63.33
2019-01-24T18:15:44.485Z,60.73
2019-01-24T18:18:14.704Z,61.10
2019-01-24T18:20:44.229Z,65.53
2019-01-24T18:23:13.901Z,67.50
2019-01-24T18:25:43.462Z,68.07
2019-01-24T18:28:13.555Z,65.90
2019-01-24T18:30:43.237Z,62.50
2019-01-24T18:33:13.432Z,67.13
2019-01-24T18:35:42.958Z,62.80
2019-01-24T18:38:12.563Z,64.03
2019-01-24T18:40:42.256Z,62.10
2019-01-24T18:43:16.207Z,65.80
2019-01-24T18:45:50.191Z,65.13
2019-01-24T18:48:19.867Z,69.63
2019-01-24T18:50:49.539Z,62.83
2019-01-24T18:53:19.163Z,71.47
2019-01-24T18:55:48.868Z,73.27
2019-01-24T18:58:18.431Z,68.43
2019-01-24T19:00:47.909Z,64.97
2019-01-24T19:03:17.583Z,70.70
2019-01-24T19:05:47.133Z,69.07
2019-01-24T19:08:16.755Z,65.60
2019-01-24T19:10:46.324Z,67.73
2019-01-24T19:13:15.774Z,63.40
2019-01-24T19:15:45.381Z,66.77
2019-01-24T19:18:14.997Z,65.67
2019-01-24T19:20:44.510Z,67.73
2019-01-24T19:23:14.179Z,68.90
2019-01-24T19:25:43.770Z,69.67
2019-01-24T19:28:13.299Z,65.77
2019-01-24T19:30:42.835Z,72.60
2019-01-24T19:33:12.505Z,67.80
2019-01-24T19:35:41.982Z,71.30
2019-01-24T19:38:11.990Z,71.57
2019-01-24T19:40:41.502Z,75.57
2019-01-24T19:43:11.107Z,66.00
2019-01-24T19:45:40.564Z,69.17
2019-01-24T19:48:10.203Z,69.67
2019-01-24T19:50:39.764Z,71.03
2019-01-24T19:53:09.380Z,65.63
2019-01-24T19:55:38.910Z,64.63
2019-01-24T19:58:08.699Z,67.27
2019-01-24T20:00:38.228Z,67.13
2019-01-24T20:03:07.893Z,71.40
2019-01-24T20:05:37.449Z,74.63
2019-01-24T20:08:07.360Z,73.50
2019-01-24T20:10:37.061Z,76.17
2019-01-24T20:13:06.806Z,72.40
2019-01-24T20:15:36.501Z,73.80
2019-01-24T20:18:07.379Z,75.80
2019-01-24T20:20:37.670Z,74.33
2019-01-24T20:23:07.399Z,75.17
2019-01-24T20:25:37.232Z,73.13
2019-01-24T20:28:07.188Z,76.90
2019-01-24T20:30:37.163Z,74.63
2019-01-24T20:33:06.772Z,72.77
2019-01-24T20:35:52.753Z,75.47
2019-01-24T20:38:22.300Z,75.27
2019-01-24T20:40:51.843Z,67.13
2019-01-24T20:43:21.736Z,76.67
2019-01-24T20:45:51.393Z,80.47
2019-01-24T20:48:20.851Z,77.20
2019-01-24T20:50:50.340Z,72.43
2019-01-24T20:53:19.919Z,78.23
2019-01-24T20:55:49.472Z,74.80
2019-01-24T20:58:18.975Z,83.47
2019-01-24T21:00:48.455Z,74.13
2019-01-24T21:03:18.104Z,70.50
2019-01-24T21:05:47.735Z,74.03
2019-01-24T21:08:17.215Z,78.83
2019-01-24T21:10:46.766Z,77.97
2019-01-24T21:13:16.397Z,74.63
2019-01-24T21:15:45.881Z,73.40
2019-01-24T21:18:15.409Z,74.90
2019-01-24T21:20:45.034Z,78.10
2019-01-24T21:23:14.610Z,74.93
2019-01-24T21:25:44.152Z,83.03
2019-01-24T21:28:13.741Z,77.47
2019-01-24T21:30:43.279Z,72.27
2019-01-24T21:33:12.881Z,78.13
2019-01-24T21:35:42.909Z,77.27
2019-01-24T21:38:12.519Z,82.93
2019-01-24T21:40:41.998Z,83.23
2019-01-24T21:43:11.667Z,78.60
2019-01-24T21:45:41.207Z,77.43
2019-01-24T21:48:10.926Z,83.23
2019-01-24T21:50:40.619Z,77.83
2019-01-24T21:53:10.225Z,84.87
2019-01-24T21:55:40.002Z,80.47
2019-01-24T21:58:10.013Z,80.03
2019-01-24T22:00:39.734Z,79.13
2019-01-24T22:03:09.295Z,85.03
2019-01-24T22:05:39.029Z,80.47
2019-01-24T22:08:08.820Z,86.53
2019-01-24T22:10:38.521Z,84.40
2019-01-24T22:13:08.334Z,82.37
2019-01-24T22:15:38.073Z,78.73
2019-01-24T22:18:07.753Z,77.20
2019-01-24T22:20:37.429Z,80.20
2019-01-24T22:23:07.333Z,77.93
2019-01-24T22:25:37.059Z,86.53
2019-01-24T22:28:07.440Z,76.03
2019-01-24T22:30:43.925Z,83.93
2019-01-24T22:33:13.485Z,85.17
2019-01-24T22:35:43.116Z,76.87
2019-01-24T22:38:12.877Z,78.07
2019-01-24T22:40:42.417Z,71.70
2019-01-24T22:43:12.019Z,73.70
2019-01-24T22:45:41.754Z,86.10
2019-01-24T22:48:11.359Z,75.77
2019-01-24T22:50:40.815Z,87.37
2019-01-24T22:53:10.448Z,78.10
2019-01-24T22:55:39.967Z,82.07
2019-01-24T22:58:09.734Z,83.63
2019-01-24T23:00:50.793Z,83.00
2019-01-24T23:03:34.064Z,80.03
2019-01-24T23:06:03.906Z,83.60
2019-01-24T23:08:34.351Z,81.90
2019-01-24T23:11:04.262Z,84.97
2019-01-24T23:13:33.895Z,76.40
2019-01-24T23:16:03.566Z,81.80
2019-01-24T23:18:33.248Z,80.27
2019-01-24T23:21:02.923Z,90.27
2019-01-24T23:23:32.585Z,88.67
2019-01-24T23:26:02.147Z,80.27
2019-01-24T23:28:31.715Z,80.27
2019-01-24T23:31:01.399Z,83.90
2019-01-24T23:33:31.020Z,77.10
2019-01-24T23:36:00.713Z,80.20
2019-01-24T23:38:34.117Z,80.93
2019-01-24T23:41:03.811Z,84.53
2019-01-24T23:43:33.483Z,87.83
2019-01-24T23:46:03.137Z,82.87
2019-01-24T23:48:32.747Z,88.20
2019-01-24T23:51:02.405Z,73.23
2019-01-24T23:53:31.979Z,81.83
2019-01-24T23:56:01.471Z,85.10
2019-01-24T23:58:30.962Z,82.43
